createdAt,value
2016-07-25T00:00:41.908Z,0
2016-07-25T00:01:43.658Z,0
2016-07-25T00:02:42.443Z,0
2016-07-25T00:03:41.845Z,0
2016-07-25T00:04:42.810Z,0
2016-07-25T00:05:41.180Z,0
2016-07-25T00:06:41.118Z,0
2016-07-25T00:07:41.916Z,0
2016-07-25T00:08:41.142Z,0
2016-07-25T00:09:42.333Z,0
2016-07-25T00:10:41.221Z,0
2016-07-25T00:11:40.544Z,0
2016-07-25T00:12:41.839Z,0
2016-07-25T00:13:41.861Z,0
2016-07-25T00:14:41.613Z,0
2016-07-25T00:15:40.783Z,0
2016-07-25T00:16:41.833Z,0
2016-07-25T00:17:40.664Z,0
2016-07-25T00:18:40.534Z,0
2016-07-25T00:19:41.219Z,0
2016-07-25T00:20:40.896Z,0
2016-07-25T00:21:41.581Z,0
2016-07-25T00:22:40.643Z,0
2016-07-25T00:23:40.331Z,0
2016-07-25T00:24:40.319Z,0
2016-07-25T00:25:40.427Z,0
2016-07-25T00:26:40.363Z,0
2016-07-25T00:27:40.122Z,0
2016-07-25T00:28:40.076Z,0
2016-07-25T00:29:40.310Z,0
2016-07-25T00:30:40.386Z,0
2016-07-25T00:31:40.117Z,0
2016-07-25T00:32:40.249Z,0
2016-07-25T00:33:40.172Z,0
2016-07-25T00:34:40.334Z,0
2016-07-25T00:35:40.223Z,0
2016-07-25T00:36:39.884Z,0
2016-07-25T00:37:39.828Z,0
2016-07-25T00:38:40.132Z,0
2016-07-25T00:39:40.128Z,0
2016-07-25T00:40:39.959Z,0
2016-07-25T00:41:39.569Z,0
2016-07-25T00:42:39.594Z,0
2016-07-25T00:43:39.542Z,0
2016-07-25T00:44:39.527Z,0
2016-07-25T00:45:39.509Z,0
2016-07-25T00:46:39.497Z,0
2016-07-25T00:47:39.481Z,0
2016-07-25T00:48:39.473Z,0
2016-07-25T00:49:39.452Z,0
2016-07-25T00:50:39.436Z,0
2016-07-25T00:51:39.421Z,0
2016-07-25T00:52:39.403Z,0
2016-07-25T00:53:39.390Z,0
2016-07-25T00:54:39.375Z,0
2016-07-25T00:55:39.362Z,0
2016-07-25T00:56:39.353Z,0
2016-07-25T00:57:39.332Z,0
2016-07-25T00:58:39.319Z,0
2016-07-25T00:59:39.307Z,0
2016-07-25T01:00:39.295Z,0
2016-07-25T01:01:39.276Z,0
2016-07-25T01:02:39.256Z,0
2016-07-25T01:03:39.242Z,0
2016-07-25T01:04:39.227Z,0
2016-07-25T01:05:39.218Z,0
2016-07-25T01:06:39.203Z,0
2016-07-25T01:07:39.188Z,0
2016-07-25T01:08:39.170Z,0
2016-07-25T01:09:39.156Z,0
2016-07-25T01:10:39.139Z,0
2016-07-25T01:11:39.127Z,0
2016-07-25T01:12:39.112Z,0
2016-07-25T01:13:39.096Z,0
2016-07-25T01:14:39.080Z,0
2016-07-25T01:15:39.071Z,0
2016-07-25T01:16:39.055Z,0
2016-07-25T01:17:39.035Z,0
2016-07-25T01:18:39.020Z,0
2016-07-25T01:19:39.004Z,0
2016-07-25T01:20:38.992Z,0
2016-07-25T01:21:38.979Z,0
2016-07-25T01:22:38.962Z,0
2016-07-25T01:23:38.947Z,0
2016-07-25T01:24:38.935Z,0
2016-07-25T01:25:38.916Z,0
2016-07-25T01:26:38.900Z,0
2016-07-25T01:27:38.883Z,0
2016-07-25T01:28:38.874Z,0
2016-07-25T01:29:38.923Z,0
2016-07-25T01:30:38.844Z,0
2016-07-25T01:31:38.828Z,0
2016-07-25T01:32:38.820Z,0
2016-07-25T01:33:38.795Z,0
2016-07-25T01:34:38.792Z,0
2016-07-25T01:35:38.767Z,0
2016-07-25T01:36:38.752Z,0
2016-07-25T01:37:38.736Z,0
2016-07-25T01:38:38.722Z,0
2016-07-25T01:39:38.707Z,0
2016-07-25T01:40:38.693Z,0
2016-07-25T01:41:38.677Z,0
2016-07-25T01:42:38.668Z,0
2016-07-25T01:43:38.657Z,0
2016-07-25T01:44:38.638Z,0
2016-07-25T01:45:38.621Z,0
2016-07-25T01:46:38.599Z,0
2016-07-25T01:47:38.591Z,0
2016-07-25T01:48:38.575Z,0
2016-07-25T01:49:38.556Z,0
2016-07-25T01:50:38.546Z,0
2016-07-25T01:51:38.527Z,0
2016-07-25T01:52:38.517Z,0
2016-07-25T01:53:38.496Z,0
2016-07-25T01:54:38.481Z,0
2016-07-25T01:55:38.468Z,0
2016-07-25T01:56:38.457Z,0
2016-07-25T01:57:38.435Z,0
2016-07-25T01:58:38.421Z,0
2016-07-25T01:59:38.402Z,0
2016-07-25T02:00:38.393Z,0
2016-07-25T02:01:39.075Z,0
2016-07-25T02:02:38.421Z,0
2016-07-25T02:03:38.342Z,0
2016-07-25T02:04:38.378Z,0
2016-07-25T02:05:38.353Z,0
2016-07-25T02:06:38.319Z,0
2016-07-25T02:07:38.281Z,0
2016-07-25T02:08:38.967Z,0
2016-07-25T02:09:38.252Z,0
2016-07-25T02:10:38.242Z,0
2016-07-25T02:11:38.222Z,0
2016-07-25T02:12:38.214Z,0
2016-07-25T02:13:38.198Z,0
2016-07-25T02:14:38.197Z,0
2016-07-25T02:15:38.216Z,0
2016-07-25T02:16:38.160Z,0
2016-07-25T02:17:38.951Z,0
2016-07-25T02:18:38.143Z,0
2016-07-25T02:19:38.159Z,0
2016-07-25T02:20:38.089Z,0
2016-07-25T02:21:38.083Z,0
2016-07-25T02:22:38.113Z,0
2016-07-25T02:23:38.798Z,0
2016-07-25T02:24:38.034Z,0
2016-07-25T02:25:38.090Z,0
2016-07-25T02:26:38.778Z,0
2016-07-25T02:27:38.736Z,0
2016-07-25T02:28:38.005Z,0
2016-07-25T02:29:38.848Z,0
2016-07-25T02:30:38.735Z,0
2016-07-25T02:31:37.931Z,0
2016-07-25T02:32:37.952Z,0
2016-07-25T02:33:38.684Z,0
2016-07-25T02:34:38.721Z,0
2016-07-25T02:35:37.869Z,0
2016-07-25T02:36:38.593Z,0
2016-07-25T02:37:37.893Z,0
2016-07-25T02:38:37.815Z,0
2016-07-25T02:39:37.843Z,0
2016-07-25T02:40:37.787Z,0
2016-07-25T02:41:37.783Z,0
2016-07-25T02:42:37.750Z,0
2016-07-25T02:43:37.764Z,0
2016-07-25T02:44:37.726Z,0
2016-07-25T02:45:37.737Z,0
2016-07-25T02:46:37.703Z,0
2016-07-25T02:47:37.736Z,0
2016-07-25T02:48:38.415Z,0
2016-07-25T02:49:37.660Z,0
2016-07-25T02:50:37.649Z,0
2016-07-25T02:51:37.635Z,0
2016-07-25T02:52:37.608Z,0
2016-07-25T02:53:38.314Z,0
2016-07-25T02:54:38.401Z,0
2016-07-25T02:55:38.428Z,0
2016-07-25T02:56:37.541Z,0
2016-07-25T02:57:38.214Z,0
2016-07-25T02:58:39.072Z,0
2016-07-25T02:59:38.329Z,0
2016-07-25T03:00:37.476Z,0
2016-07-25T03:01:37.551Z,4
2016-07-25T03:02:38.249Z,4
2016-07-25T03:03:37.478Z,4
2016-07-25T03:04:38.207Z,0
2016-07-25T03:05:38.250Z,4
2016-07-25T03:06:37.414Z,4
2016-07-25T03:07:37.472Z,0
2016-07-25T03:08:38.153Z,4
2016-07-25T03:09:38.150Z,8
2016-07-25T03:10:37.437Z,4
2016-07-25T03:11:37.486Z,8
2016-07-25T03:12:37.405Z,8
2016-07-25T03:13:38.042Z,8
2016-07-25T03:14:37.325Z,12
2016-07-25T03:15:38.912Z,12
2016-07-25T03:16:37.263Z,12
2016-07-25T03:17:38.076Z,12
2016-07-25T03:18:38.024Z,16
2016-07-25T03:19:37.287Z,16
2016-07-25T03:20:37.230Z,16
2016-07-25T03:21:37.233Z,16
2016-07-25T03:22:37.135Z,16
2016-07-25T03:23:37.205Z,20
2016-07-25T03:24:37.193Z,24
2016-07-25T03:25:37.170Z,28
2016-07-25T03:26:37.118Z,36
2016-07-25T03:27:38.640Z,44
2016-07-25T03:28:37.923Z,48
2016-07-25T03:29:38.633Z,52
2016-07-25T03:30:37.817Z,60
2016-07-25T03:31:37.803Z,64
2016-07-25T03:32:37.780Z,68
2016-07-25T03:33:37.736Z,76
2016-07-25T03:34:37.049Z,88
2016-07-25T03:35:37.797Z,100
2016-07-25T03:36:37.830Z,112
2016-07-25T03:37:37.759Z,120
2016-07-25T03:38:36.951Z,128
2016-07-25T03:39:36.893Z,144
2016-07-25T03:40:37.658Z,160
2016-07-25T03:41:36.910Z,180
2016-07-25T03:42:36.976Z,200
2016-07-25T03:43:37.754Z,216
2016-07-25T03:44:36.897Z,236
2016-07-25T03:45:36.864Z,252
2016-07-25T03:46:37.628Z,276
2016-07-25T03:47:37.557Z,304
2016-07-25T03:48:36.845Z,336
2016-07-25T03:49:37.514Z,364
2016-07-25T03:50:37.547Z,400
2016-07-25T03:51:36.701Z,448
2016-07-25T03:52:36.734Z,504
2016-07-25T03:53:36.703Z,572
2016-07-25T03:54:36.768Z,644
2016-07-25T03:55:36.678Z,720
2016-07-25T03:56:36.652Z,796
2016-07-25T03:57:36.720Z,876
2016-07-25T03:58:37.370Z,960
2016-07-25T03:59:36.563Z,1044
2016-07-25T04:00:37.386Z,1132
2016-07-25T04:01:36.571Z,1208
2016-07-25T04:02:37.357Z,1288
2016-07-25T04:03:37.372Z,1364
2016-07-25T04:04:36.546Z,1424
2016-07-25T04:05:36.567Z,1480
2016-07-25T04:06:37.291Z,1524
2016-07-25T04:07:37.212Z,1556
2016-07-25T04:08:36.430Z,1592
2016-07-25T04:09:36.482Z,1648
2016-07-25T04:10:37.227Z,1720
2016-07-25T04:11:36.455Z,1792
2016-07-25T04:12:37.164Z,1860
2016-07-25T04:13:36.391Z,1932
2016-07-25T04:14:36.391Z,2000
2016-07-25T04:15:37.148Z,2092
2016-07-25T04:16:36.433Z,2188
2016-07-25T04:17:36.280Z,2296
2016-07-25T04:18:37.082Z,2420
2016-07-25T04:19:36.993Z,2556
2016-07-25T04:20:37.078Z,2712
2016-07-25T04:21:37.185Z,2864
2016-07-25T04:22:36.990Z,3020
2016-07-25T04:23:36.279Z,3160
2016-07-25T04:24:36.265Z,3272
2016-07-25T04:25:36.255Z,3352
2016-07-25T04:26:36.905Z,3396
2016-07-25T04:27:36.222Z,3424
2016-07-25T04:28:36.948Z,3472
2016-07-25T04:29:36.132Z,3552
2016-07-25T04:30:36.887Z,3672
2016-07-25T04:31:36.896Z,3804
2016-07-25T04:32:36.058Z,3956
2016-07-25T04:33:36.157Z,4144
2016-07-25T04:34:36.778Z,4352
2016-07-25T04:35:36.842Z,4548
2016-07-25T04:36:36.123Z,4724
2016-07-25T04:37:37.510Z,4836
2016-07-25T04:38:36.740Z,4924
2016-07-25T04:39:36.743Z,4996
2016-07-25T04:40:35.951Z,5056
2016-07-25T04:41:36.730Z,5128
2016-07-25T04:42:36.000Z,5232
2016-07-25T04:43:36.672Z,5352
2016-07-25T04:44:35.975Z,5484
2016-07-25T04:45:35.951Z,5632
2016-07-25T04:46:35.942Z,5768
2016-07-25T04:47:35.908Z,5864
2016-07-25T04:48:35.886Z,5924
2016-07-25T04:49:35.912Z,5992
2016-07-25T04:50:35.814Z,6108
2016-07-25T04:51:36.493Z,6240
2016-07-25T04:52:35.799Z,6356
2016-07-25T04:53:35.744Z,6440
2016-07-25T04:54:35.855Z,6476
2016-07-25T04:55:35.818Z,6524
2016-07-25T04:56:36.414Z,6616
2016-07-25T04:57:35.738Z,6752
2016-07-25T04:58:35.645Z,6916
2016-07-25T04:59:35.753Z,7088
2016-07-25T05:00:35.717Z,7268
2016-07-25T05:01:35.728Z,7444
2016-07-25T05:02:35.613Z,7596
2016-07-25T05:03:35.716Z,7696
2016-07-25T05:04:35.713Z,7736
2016-07-25T05:05:36.455Z,7724
2016-07-25T05:06:36.395Z,7680
2016-07-25T05:07:35.604Z,7584
2016-07-25T05:08:35.587Z,7460
2016-07-25T05:09:36.251Z,7344
2016-07-25T05:10:36.288Z,7256
2016-07-25T05:11:35.517Z,7176
2016-07-25T05:12:36.235Z,7100
2016-07-25T05:13:35.614Z,7012
2016-07-25T05:14:35.441Z,6912
2016-07-25T05:15:36.289Z,6800
2016-07-25T05:16:35.487Z,6676
2016-07-25T05:17:36.292Z,6540
2016-07-25T05:18:35.527Z,6412
2016-07-25T05:19:35.373Z,6316
2016-07-25T05:20:36.101Z,6244
2016-07-25T05:21:35.363Z,6212
2016-07-25T05:22:35.431Z,6248
2016-07-25T05:23:35.313Z,6360
2016-07-25T05:24:35.456Z,6468
2016-07-25T05:25:35.283Z,6452
2016-07-25T05:26:35.289Z,6208
2016-07-25T05:27:35.320Z,5888
2016-07-25T05:28:35.271Z,5716
2016-07-25T05:29:35.270Z,5704
2016-07-25T05:30:35.274Z,5728
2016-07-25T05:31:35.162Z,5772
2016-07-25T05:32:35.199Z,5824
2016-07-25T05:33:35.140Z,5868
2016-07-25T05:34:35.192Z,5924
2016-07-25T05:35:35.225Z,6020
2016-07-25T05:36:35.353Z,6056
2016-07-25T05:37:36.072Z,6020
2016-07-25T05:38:35.544Z,5988
2016-07-25T05:39:35.189Z,6000
2016-07-25T05:40:35.394Z,6092
2016-07-25T05:41:35.042Z,6288
2016-07-25T05:42:35.042Z,6672
2016-07-25T05:43:35.391Z,7300
2016-07-25T05:44:34.997Z,8144
2016-07-25T05:45:35.005Z,9200
2016-07-25T05:46:35.720Z,10304
2016-07-25T05:47:34.931Z,11244
2016-07-25T05:48:34.901Z,11832
2016-07-25T05:49:35.038Z,11852
2016-07-25T05:50:34.866Z,11312
2016-07-25T05:51:34.848Z,10796
2016-07-25T05:52:34.906Z,10540
2016-07-25T05:53:34.830Z,10552
2016-07-25T05:54:35.298Z,10788
2016-07-25T05:55:35.169Z,11060
2016-07-25T05:56:35.921Z,11140
2016-07-25T05:57:35.031Z,10924
2016-07-25T05:58:35.365Z,10744
2016-07-25T05:59:35.696Z,11036
2016-07-25T06:00:35.433Z,11796
2016-07-25T06:01:35.596Z,12600
2016-07-25T06:02:35.238Z,13324
2016-07-25T06:03:35.612Z,13880
2016-07-25T06:04:35.403Z,14236
2016-07-25T06:05:35.563Z,14656
2016-07-25T06:06:35.286Z,15128
2016-07-25T06:07:35.058Z,15308
2016-07-25T06:08:34.708Z,15452
2016-07-25T06:09:34.753Z,15660
2016-07-25T06:10:35.108Z,15672
2016-07-25T06:11:35.082Z,15396
2016-07-25T06:12:34.548Z,14816
2016-07-25T06:13:34.806Z,13836
2016-07-25T06:14:34.542Z,12700
2016-07-25T06:15:34.511Z,11948
2016-07-25T06:16:35.026Z,12016
2016-07-25T06:17:34.874Z,10944
2016-07-25T06:18:34.816Z,10392
2016-07-25T06:19:34.890Z,10192
2016-07-25T06:20:34.946Z,10236
2016-07-25T06:21:34.838Z,10300
2016-07-25T06:22:35.120Z,10324
2016-07-25T06:23:35.108Z,10560
2016-07-25T06:24:35.140Z,11048
2016-07-25T06:25:34.581Z,11588
2016-07-25T06:26:34.476Z,12092
2016-07-25T06:27:34.452Z,12428
2016-07-25T06:28:35.443Z,12664
2016-07-25T06:29:34.783Z,12652
2016-07-25T06:30:34.433Z,12484
2016-07-25T06:31:34.574Z,12196
2016-07-25T06:32:34.537Z,11892
2016-07-25T06:33:34.869Z,11708
2016-07-25T06:34:34.994Z,11756
2016-07-25T06:36:35.513Z,12200
2016-07-25T06:37:35.272Z,12840
2016-07-25T06:38:35.014Z,14052
2016-07-25T06:39:35.775Z,14100
2016-07-25T06:40:35.236Z,14460
2016-07-25T06:41:35.445Z,14924
2016-07-25T06:42:34.777Z,15004
2016-07-25T06:43:34.922Z,15076
2016-07-25T06:44:34.989Z,15380
2016-07-25T06:45:37.616Z,18400
2016-07-25T06:46:36.432Z,17920
2016-07-25T06:47:36.125Z,19712
2016-07-25T06:48:36.834Z,22304
2016-07-25T06:49:35.541Z,26016
2016-07-25T06:50:36.451Z,28320
2016-07-25T06:51:34.148Z,33536
2016-07-25T06:52:34.557Z,34752
2016-07-25T06:53:37.422Z,32320
2016-07-25T06:54:35.364Z,27584
2016-07-25T06:56:35.405Z,24672
2016-07-25T06:57:35.808Z,23808
2016-07-25T06:58:36.035Z,21984
2016-07-25T06:59:35.118Z,22976
2016-07-25T07:00:35.614Z,24864
2016-07-25T07:01:36.787Z,34720
2016-07-25T07:02:35.239Z,35616
2016-07-25T07:03:35.586Z,36032
2016-07-25T07:04:35.684Z,35392
2016-07-25T07:05:35.472Z,35104
2016-07-25T07:06:37.065Z,27840
2016-07-25T07:07:36.684Z,38016
2016-07-25T07:08:35.755Z,40768
2016-07-25T07:09:35.502Z,42112
2016-07-25T07:10:35.345Z,39616
2016-07-25T07:11:36.599Z,36928
2016-07-25T07:12:36.378Z,35936
2016-07-25T07:13:36.272Z,38272
2016-07-25T07:14:36.189Z,41152
2016-07-25T07:15:36.290Z,34880
2016-07-25T07:16:37.126Z,42976
2016-07-25T07:17:37.974Z,38976
2016-07-25T07:18:35.741Z,28864
2016-07-25T07:19:36.241Z,28256
2016-07-25T07:20:35.312Z,27552
2016-07-25T07:21:35.207Z,27264
2016-07-25T07:22:34.838Z,27392
2016-07-25T07:23:35.192Z,27584
2016-07-25T07:24:35.255Z,28256
2016-07-25T07:25:35.392Z,29088
2016-07-25T07:26:35.316Z,29952
2016-07-25T07:27:35.447Z,32800
2016-07-25T07:28:35.494Z,32832
2016-07-25T07:29:36.954Z,30912
2016-07-25T07:30:35.226Z,30848
2016-07-25T07:31:35.504Z,34848
2016-07-25T07:32:36.683Z,29664
2016-07-25T07:33:36.247Z,39552
2016-07-25T07:34:35.615Z,27488
2016-07-25T07:35:35.896Z,29824
2016-07-25T07:36:36.317Z,38272
2016-07-25T07:37:35.783Z,46048
2016-07-25T07:38:36.194Z,47616
2016-07-25T07:39:36.350Z,46656
2016-07-25T07:40:37.102Z,46880
2016-07-25T07:41:36.977Z,44864
2016-07-25T07:42:36.300Z,41888
2016-07-25T07:43:37.272Z,42336
2016-07-25T07:44:35.461Z,41600
2016-07-25T07:45:35.678Z,43264
2016-07-25T07:46:36.573Z,42304
2016-07-25T07:47:36.365Z,36544
2016-07-25T07:48:35.491Z,28896
2016-07-25T07:49:35.729Z,36096
2016-07-25T07:50:35.295Z,38528
2016-07-25T07:51:35.359Z,42624
2016-07-25T07:52:35.172Z,36544
2016-07-25T07:53:35.261Z,32160
2016-07-25T07:54:35.505Z,35872
2016-07-25T07:55:35.437Z,31296
2016-07-25T07:56:35.685Z,31680
2016-07-25T07:57:34.964Z,34304
2016-07-25T07:59:37.569Z,32480
2016-07-25T08:00:36.450Z,38016
2016-07-25T08:01:37.354Z,31328
2016-07-25T08:02:37.546Z,40448
2016-07-25T08:03:36.035Z,42272
2016-07-25T08:04:35.960Z,40352
2016-07-25T08:05:36.306Z,45632
2016-07-25T08:06:35.282Z,53984
2016-07-25T08:07:37.176Z,51840
2016-07-25T08:08:37.346Z,39424
2016-07-25T08:09:36.482Z,43680
2016-07-25T08:10:35.801Z,38464
2016-07-25T08:11:37.657Z,30080
2016-07-25T08:12:36.408Z,30016
2016-07-25T08:13:35.214Z,32320
2016-07-25T08:14:35.376Z,35648
2016-07-25T08:15:36.152Z,31584
2016-07-25T08:16:36.119Z,35168
2016-07-25T08:17:35.411Z,37056
2016-07-25T08:18:36.295Z,26336
2016-07-25T08:19:35.836Z,22752
2016-07-25T08:20:35.933Z,20256
2016-07-25T08:21:35.550Z,18688
2016-07-25T08:22:36.131Z,17952
2016-07-25T08:24:36.839Z,15940
2016-07-25T08:25:36.672Z,14728
2016-07-25T08:26:38.078Z,14364
2016-07-25T08:27:36.351Z,14288
2016-07-25T08:28:36.466Z,14744
2016-07-25T08:29:36.035Z,16196
2016-07-25T08:30:36.030Z,18816
2016-07-25T08:31:36.028Z,20736
2016-07-25T08:32:36.580Z,22240
2016-07-25T08:33:35.082Z,23264
2016-07-25T08:34:35.162Z,23680
2016-07-25T08:35:36.823Z,24256
2016-07-25T08:36:35.072Z,25248
2016-07-25T08:37:35.170Z,25632
2016-07-25T08:38:34.966Z,25888
2016-07-25T08:39:36.227Z,26656
2016-07-25T08:40:34.915Z,25280
2016-07-25T08:41:34.837Z,25696
2016-07-25T08:42:34.840Z,56832
2016-07-25T08:43:36.135Z,26720
2016-07-25T08:44:35.157Z,34240
2016-07-25T08:45:37.407Z,33824
2016-07-25T08:46:34.981Z,37408
2016-07-25T08:47:35.452Z,63008
2016-07-25T08:48:35.091Z,33216
2016-07-25T08:49:36.925Z,47968
2016-07-25T08:50:35.659Z,56288
2016-07-25T08:51:35.273Z,57440
2016-07-25T08:52:36.004Z,55264
2016-07-25T08:53:36.074Z,50528
2016-07-25T08:54:35.147Z,45440
2016-07-25T08:55:34.906Z,39936
2016-07-25T08:56:35.807Z,39232
2016-07-25T08:57:35.665Z,37664
2016-07-25T08:58:35.980Z,58688
2016-07-25T08:59:36.817Z,61856
2016-07-25T09:00:36.100Z,66176
2016-07-25T09:01:35.933Z,61920
2016-07-25T09:02:35.269Z,56000
2016-07-25T09:03:35.955Z,52288
2016-07-25T09:04:35.848Z,52544
2016-07-25T09:05:36.278Z,45760
2016-07-25T09:06:35.044Z,49376
2016-07-25T09:07:35.446Z,57888
2016-07-25T09:08:35.708Z,61920
2016-07-25T09:09:35.704Z,64384
2016-07-25T09:10:34.454Z,61728
2016-07-25T09:11:34.708Z,56864
2016-07-25T09:12:34.719Z,60448
2016-07-25T09:13:35.620Z,61568
2016-07-25T09:14:36.033Z,62272
2016-07-25T09:15:35.586Z,67744
2016-07-25T09:16:34.300Z,63296
2016-07-25T09:17:34.182Z,64096
2016-07-25T09:18:35.077Z,64672
2016-07-25T09:19:35.625Z,67200
2016-07-25T09:20:34.359Z,69216
2016-07-25T09:21:33.938Z,59008
2016-07-25T09:22:35.543Z,63840
2016-07-25T09:23:33.914Z,72832
2016-07-25T09:24:34.037Z,75936
2016-07-25T09:25:34.078Z,76672
2016-07-25T09:26:35.351Z,72992
2016-07-25T09:27:34.644Z,74624
2016-07-25T09:28:33.899Z,75232
2016-07-25T09:29:34.402Z,74816
2016-07-25T09:30:33.991Z,78464
2016-07-25T09:31:34.519Z,81568
2016-07-25T09:32:36.433Z,81152
2016-07-25T09:33:34.960Z,80032
2016-07-25T09:34:36.077Z,78912
2016-07-25T09:35:33.891Z,81024
2016-07-25T09:36:35.347Z,82816
2016-07-25T09:37:34.041Z,81216
2016-07-25T09:38:33.948Z,75648
2016-07-25T09:39:35.223Z,80192
2016-07-25T09:40:33.675Z,79840
2016-07-25T09:41:33.646Z,55488
2016-07-25T09:42:34.606Z,68480
2016-07-25T09:43:34.508Z,74336
2016-07-25T09:44:33.700Z,76704
2016-07-25T09:45:34.496Z,65152
2016-07-25T09:46:33.330Z,59584
2016-07-25T09:47:33.206Z,85088
2016-07-25T09:48:33.302Z,81696
2016-07-25T09:49:32.969Z,64608
2016-07-25T09:50:35.399Z,51168
2016-07-25T09:51:32.551Z,65440
2016-07-25T09:52:34.618Z,77632
2016-07-25T09:53:33.580Z,65632
2016-07-25T09:54:33.995Z,20672
2016-07-25T09:55:35.005Z,68096
2016-07-25T09:56:34.995Z,65952
2016-07-25T09:57:34.067Z,70944
2016-07-25T09:58:34.003Z,78624
2016-07-25T09:59:33.778Z,82656
2016-07-25T10:00:33.641Z,85472
2016-07-25T10:01:34.731Z,82624
2016-07-25T10:02:34.097Z,84736
2016-07-25T10:03:34.091Z,88512
2016-07-25T10:04:34.317Z,92928
2016-07-25T10:05:33.382Z,90400
2016-07-25T10:06:33.650Z,91904
2016-07-25T10:07:33.614Z,89952
2016-07-25T10:08:34.602Z,92288
2016-07-25T10:09:34.025Z,94944
2016-07-25T10:10:35.315Z,95904
2016-07-25T10:11:34.280Z,96384
2016-07-25T10:12:34.017Z,81728
2016-07-25T10:13:34.418Z,88704
2016-07-25T10:14:34.392Z,93600
2016-07-25T10:15:34.001Z,89952
2016-07-25T10:16:33.811Z,85664
2016-07-25T10:17:33.747Z,18132
2016-07-25T10:18:34.120Z,17328
2016-07-25T10:19:33.768Z,21760
2016-07-25T10:20:33.826Z,17784
2016-07-25T10:21:33.483Z,93440
2016-07-25T10:22:33.812Z,97248
2016-07-25T10:23:33.142Z,98400
2016-07-25T10:24:33.845Z,94848
2016-07-25T10:25:35.860Z,93920
2016-07-25T10:26:32.399Z,73952
2016-07-25T10:27:32.394Z,88032
2016-07-25T10:28:32.398Z,70016
2016-07-25T10:29:32.390Z,94144
2016-07-25T10:30:32.641Z,95648
2016-07-25T10:31:32.554Z,94240
2016-07-25T10:32:32.430Z,67456
2016-07-25T10:33:32.910Z,33568
2016-07-25T10:34:32.410Z,31712
2016-07-25T10:35:32.374Z,30976
2016-07-25T10:36:32.507Z,40192
2016-07-25T10:37:32.363Z,78080
2016-07-25T10:38:32.364Z,97824
2016-07-25T10:39:32.363Z,98848
2016-07-25T10:40:32.545Z,95008
2016-07-25T10:41:32.357Z,92320
2016-07-25T10:42:32.349Z,96704
2016-07-25T10:43:32.351Z,97312
2016-07-25T10:44:32.347Z,100384
2016-07-25T10:45:32.348Z,24096
2016-07-25T10:46:32.350Z,22816
2016-07-25T10:47:32.340Z,24128
2016-07-25T10:48:32.751Z,22848
2016-07-25T10:49:34.083Z,96640
2016-07-25T10:50:33.483Z,101184
2016-07-25T10:51:33.118Z,98240
2016-07-25T10:52:33.247Z,93024
2016-07-25T10:53:33.102Z,96672
2016-07-25T10:54:33.060Z,95520
2016-07-25T10:55:33.306Z,92992
2016-07-25T10:56:33.220Z,96064
2016-07-25T10:57:32.952Z,93824
2016-07-25T10:58:33.269Z,40192
2016-07-25T10:59:33.039Z,24992
2016-07-25T11:00:33.319Z,99744
2016-07-25T11:01:32.760Z,100704
2016-07-25T11:02:33.393Z,102144
2016-07-25T11:03:33.207Z,97664
2016-07-25T11:04:33.099Z,97120
2016-07-25T11:05:33.968Z,94432
2016-07-25T11:06:32.923Z,97440
2016-07-25T11:07:32.294Z,101984
2016-07-25T11:08:32.769Z,77024
2016-07-25T11:09:32.419Z,88608
2016-07-25T11:10:32.553Z,90240
2016-07-25T11:11:32.936Z,92576
2016-07-25T11:12:33.413Z,89120
2016-07-25T11:13:32.697Z,93760
2016-07-25T11:14:32.856Z,46080
2016-07-25T11:15:33.715Z,26368
2016-07-25T11:16:32.879Z,26432
2016-07-25T11:17:32.366Z,37440
2016-07-25T11:18:32.696Z,108544
2016-07-25T11:19:32.632Z,106432
2016-07-25T11:20:32.927Z,103456
2016-07-25T11:21:34.867Z,111296
2016-07-25T11:22:33.717Z,107488
2016-07-25T11:23:33.790Z,102144
2016-07-25T11:24:32.820Z,101056
2016-07-25T11:25:32.278Z,102496
2016-07-25T11:26:32.911Z,99488
2016-07-25T11:27:32.540Z,17464
2016-07-25T11:28:34.245Z,17460
2016-07-25T11:29:32.406Z,19136
2016-07-25T11:30:32.338Z,96096
2016-07-25T11:31:32.530Z,95616
2016-07-25T11:32:32.351Z,91168
2016-07-25T11:33:32.338Z,24160
2016-07-25T11:34:32.281Z,22304
2016-07-25T11:35:33.107Z,96896
2016-07-25T11:36:32.673Z,97824
2016-07-25T11:37:33.033Z,95840
2016-07-25T11:38:32.343Z,96576
2016-07-25T11:39:32.409Z,92192
2016-07-25T11:40:32.261Z,88064
2016-07-25T11:41:32.253Z,90752
2016-07-25T11:42:32.394Z,96512
2016-07-25T11:43:32.279Z,51456
2016-07-25T11:44:32.319Z,40448
2016-07-25T11:45:32.259Z,29856
2016-07-25T11:46:32.251Z,29792
2016-07-25T11:47:32.491Z,30496
2016-07-25T11:48:33.007Z,31424
2016-07-25T11:49:32.671Z,32320
2016-07-25T11:50:32.493Z,33312
2016-07-25T11:51:32.403Z,34112
2016-07-25T11:52:34.703Z,34528
2016-07-25T11:53:34.899Z,34912
2016-07-25T11:54:32.355Z,35488
2016-07-25T11:55:32.439Z,36640
2016-07-25T11:56:33.712Z,39200
2016-07-25T11:57:32.295Z,42432
2016-07-25T11:58:34.808Z,46208
2016-07-25T11:59:32.364Z,55968
2016-07-25T12:00:33.465Z,58816
2016-07-25T12:01:32.257Z,55520
2016-07-25T12:02:32.211Z,62496
2016-07-25T12:03:32.262Z,73792
2016-07-25T12:04:32.703Z,73312
2016-07-25T12:05:32.622Z,61632
2016-07-25T12:06:32.306Z,120448
2016-07-25T12:07:33.038Z,118752
2016-07-25T12:08:32.316Z,100832
2016-07-25T12:09:32.487Z,99488
2016-07-25T12:10:32.898Z,110048
2016-07-25T12:11:32.291Z,83840
2016-07-25T12:12:32.607Z,62976
2016-07-25T12:13:32.738Z,90304
2016-07-25T12:14:32.640Z,85056
2016-07-25T12:15:33.655Z,28640
2016-07-25T12:16:33.768Z,24192
2016-07-25T12:17:32.713Z,20704
2016-07-25T12:18:33.868Z,19264
2016-07-25T12:19:34.496Z,56352
2016-07-25T12:20:33.505Z,103744
2016-07-25T12:21:34.198Z,105568
2016-07-25T12:22:34.048Z,42624
2016-07-25T12:23:34.733Z,105088
2016-07-25T12:24:34.872Z,107616
2016-07-25T12:25:33.675Z,110240
2016-07-25T12:26:34.665Z,111968
2016-07-25T12:27:33.931Z,111424
2016-07-25T12:28:33.187Z,111456
2016-07-25T12:29:33.316Z,115264
2016-07-25T12:30:35.780Z,90592
2016-07-25T12:31:33.772Z,47648
2016-07-25T12:32:33.271Z,39360
2016-07-25T12:33:34.140Z,116032
2016-07-25T12:34:33.634Z,118048
2016-07-25T12:35:33.436Z,40768
2016-07-25T12:36:34.239Z,36640
2016-07-25T12:37:33.861Z,46176
2016-07-25T12:38:33.902Z,38784
2016-07-25T12:39:34.199Z,61280
2016-07-25T12:40:33.945Z,38304
2016-07-25T12:41:34.111Z,65344
2016-07-25T12:42:33.446Z,129472
2016-07-25T12:43:36.051Z,128000
2016-07-25T12:44:33.317Z,124160
2016-07-25T12:45:34.302Z,123200
2016-07-25T12:46:33.808Z,121504
2016-07-25T12:47:34.266Z,38688
2016-07-25T12:48:33.569Z,36576
2016-07-25T12:49:34.143Z,33376
2016-07-25T12:50:33.967Z,31328
2016-07-25T12:51:33.933Z,30432
2016-07-25T12:52:34.538Z,30592
2016-07-25T12:53:33.305Z,30752
2016-07-25T12:54:33.826Z,31488
2016-07-25T12:55:33.977Z,33280
2016-07-25T12:56:34.098Z,38048
2016-07-25T12:57:33.315Z,61792
2016-07-25T12:58:33.568Z,100160
2016-07-25T12:59:33.644Z,69216
2016-07-25T13:00:33.395Z,61536
2016-07-25T13:01:32.223Z,46976
2016-07-25T13:02:32.116Z,48352
2016-07-25T13:03:32.419Z,36896
2016-07-25T13:04:33.083Z,34272
2016-07-25T13:05:32.170Z,33472
2016-07-25T13:06:32.873Z,37984
2016-07-25T13:07:32.092Z,34816
2016-07-25T13:08:32.067Z,34592
2016-07-25T13:09:32.059Z,37792
2016-07-25T13:10:32.694Z,33984
2016-07-25T13:11:32.060Z,32640
2016-07-25T13:12:33.406Z,30464
2016-07-25T13:13:33.481Z,28192
2016-07-25T13:14:32.444Z,25824
2016-07-25T13:15:33.625Z,23712
2016-07-25T13:16:33.166Z,22080
2016-07-25T13:17:33.876Z,20896
2016-07-25T13:18:32.723Z,19968
2016-07-25T13:19:32.010Z,18912
2016-07-25T13:20:32.004Z,17888
2016-07-25T13:21:32.085Z,16988
2016-07-25T13:22:31.990Z,16692
2016-07-25T13:23:32.357Z,16640
2016-07-25T13:24:32.628Z,16568
2016-07-25T13:25:32.984Z,16712
2016-07-25T13:26:32.910Z,16680
2016-07-25T13:27:33.900Z,16744